Time;durP1;ratioP1;P1;durP2;ratioP2;P2;SDS_P1;SDS_P2;PMS_P1;PMS_P2;Temp;Humidity;BMP_temperature;BMP_pressure;BME280_temperature;BME280_humidity;BME280_pressure;Samples;Min_cycle;Max_cycle;Signal;HPM_P1;HPM_P2
2022/05/12 00:00:09;;;;;;;4.85;4.40;;;;;;;;;;10460141;28;20210;-72
2022/05/12 00:05:11;;;;;;;4.22;4.03;;;;;;;;;;10460352;28;20333;-73
2022/05/12 00:10:13;;;;;;;3.92;3.70;;;;;;;;;;10446462;28;20320;-73
2022/05/12 00:15:16;;;;;;;5.00;4.40;;;;;;;;;;10454120;28;20687;-73
2022/05/12 00:20:19;;;;;;;4.65;4.32;;;;;;;;;;10455024;28;20269;-73
2022/05/12 00:25:22;;;;;;;5.20;4.88;;;;;;;;;;10463342;28;20214;-73
2022/05/12 00:30:23;;;;;;;5.28;4.82;;;;;;;;;;10456033;28;20228;-72
2022/05/12 00:35:24;;;;;;;4.22;3.30;;;;;;;;;;10456648;28;20207;-73
2022/05/12 00:40:25;;;;;;;6.97;3.35;;;;;;;;;;10448127;28;20268;-73
2022/05/12 00:45:28;;;;;;;4.82;3.38;;;;;;;;;;10458269;28;20222;-72
2022/05/12 00:50:31;;;;;;;5.55;4.10;;;;;;;;;;10429712;28;20271;-72
2022/05/12 00:55:33;;;;;;;5.80;3.97;;;;;;;;;;10447432;28;20283;-71
2022/05/12 01:00:34;;;;;;;4.75;4.30;;;;;;;;;;10443798;28;20353;-73
2022/05/12 01:05:35;;;;;;;5.53;4.32;;;;;;;;;;10442335;28;20259;-74
2022/05/12 01:10:39;;;;;;;5.10;4.57;;;;;;;;;;10439343;28;20201;-72
2022/05/12 01:15:48;;;;;;;6.95;4.53;;;;;;;;;;10439990;28;20202;-73
2022/05/12 01:20:50;;;;;;;11.13;4.63;;;;;;;;;;10437417;28;20205;-72
2022/05/12 01:25:56;;;;;;;7.80;4.88;;;;;;;;;;10436085;28;20222;-72
2022/05/12 01:30:57;;;;;;;10.55;5.82;;;;;;;;;;10428295;28;20215;-73
2022/05/12 01:35:58;;;;;;;8.18;5.93;;;;;;;;;;10438755;28;20216;-74
2022/05/12 01:40:59;;;;;;;11.13;5.57;;;;;;;;;;10430657;28;20288;-74
2022/05/12 01:46:00;;;;;;;7.22;4.43;;;;;;;;;;10431052;28;20226;-73
2022/05/12 01:51:02;;;;;;;5.75;4.93;;;;;;;;;;10452000;28;20206;-74
2022/05/12 01:56:04;;;;;;;10.95;5.07;;;;;;;;;;10453497;28;20206;-72
2022/05/12 02:01:06;;;;;;;7.50;4.88;;;;;;;;;;10453991;28;20214;-74
2022/05/12 02:06:07;;;;;;;6.63;5.07;;;;;;;;;;10447365;28;20207;-74
2022/05/12 02:11:08;;;;;;;7.00;5.43;;;;;;;;;;10460719;28;20255;-75
2022/05/12 02:16:09;;;;;;;6.38;5.75;;;;;;;;;;10456940;28;20210;-73
2022/05/12 02:21:11;;;;;;;10.32;5.32;;;;;;;;;;10461622;28;20210;-73
2022/05/12 02:26:12;;;;;;;11.43;5.85;;;;;;;;;;10447486;28;20290;-75
2022/05/12 02:31:13;;;;;;;9.60;6.07;;;;;;;;;;10464021;28;20222;-73
2022/05/12 02:36:14;;;;;;;9.45;6.07;;;;;;;;;;10463739;28;20212;-75
2022/05/12 02:41:15;;;;;;;11.75;6.88;;;;;;;;;;10461014;28;20209;-73
2022/05/12 02:46:16;;;;;;;13.90;6.63;;;;;;;;;;10464225;28;20228;-74
2022/05/12 02:51:17;;;;;;;10.85;6.13;;;;;;;;;;10459495;28;20209;-72
2022/05/12 02:56:18;;;;;;;9.23;6.78;;;;;;;;;;10456154;28;20206;-72
2022/05/12 03:01:20;;;;;;;9.02;5.57;;;;;;;;;;10447257;28;20630;-73
2022/05/12 03:06:21;;;;;;;9.60;7.10;;;;;;;;;;10446539;28;20637;-73
2022/05/12 03:11:22;;;;;;;8.98;5.97;;;;;;;;;;10447957;28;20237;-73
2022/05/12 03:16:23;;;;;;;8.55;5.68;;;;;;;;;;10435853;28;20713;-75
2022/05/12 03:21:24;;;;;;;6.10;5.22;;;;;;;;;;10432248;28;20314;-75
2022/05/12 03:26:26;;;;;;;8.40;4.35;;;;;;;;;;10443986;28;20555;-73
2022/05/12 03:31:27;;;;;;;6.70;4.05;;;;;;;;;;10450676;28;20234;-77
2022/05/12 03:36:28;;;;;;;5.40;3.72;;;;;;;;;;10451754;28;20224;-74
2022/05/12 03:41:30;;;;;;;3.83;3.50;;;;;;;;;;10441460;28;20211;-76
2022/05/12 03:46:31;;;;;;;2.90;2.65;;;;;;;;;;10442451;28;20257;-74
2022/05/12 03:51:32;;;;;;;6.85;2.92;;;;;;;;;;10467060;28;20233;-75
2022/05/12 03:56:33;;;;;;;5.00;3.08;;;;;;;;;;10436518;28;20214;-75
2022/05/12 04:01:34;;;;;;;2.58;2.47;;;;;;;;;;10455180;28;20218;-74
2022/05/12 04:06:36;;;;;;;2.45;1.25;;;;;;;;;;10443843;28;20281;-74
2022/05/12 04:11:37;;;;;;;2.25;0.70;;;;;;;;;;10448017;28;20206;-74
2022/05/12 04:16:44;;;;;;;1.83;1.08;;;;;;;;;;10401174;28;20214;-75
2022/05/12 04:21:45;;;;;;;4.10;0.90;;;;;;;;;;10429684;28;20275;-74
2022/05/12 04:26:47;;;;;;;1.48;0.90;;;;;;;;;;10438463;28;20321;-74
2022/05/12 04:31:49;;;;;;;4.72;1.10;;;;;;;;;;10433001;28;20278;-74
2022/05/12 04:36:50;;;;;;;5.45;1.10;;;;;;;;;;10444889;28;20214;-73
2022/05/12 04:41:51;;;;;;;3.65;0.90;;;;;;;;;;10451819;28;20202;-73
2022/05/12 04:46:53;;;;;;;1.98;0.82;;;;;;;;;;10439346;28;20240;-73
2022/05/12 04:51:56;;;;;;;1.20;0.90;;;;;;;;;;10452830;28;20227;-73
2022/05/12 04:56:57;;;;;;;3.00;0.85;;;;;;;;;;10458073;28;20237;-74
2022/05/12 05:01:58;;;;;;;2.85;0.70;;;;;;;;;;10442174;28;20214;-73
2022/05/12 05:06:59;;;;;;;1.88;0.57;;;;;;;;;;10429493;28;20340;-74
2022/05/12 05:12:01;;;;;;;1.35;0.90;;;;;;;;;;10439621;28;20199;-73
2022/05/12 05:17:03;;;;;;;3.63;0.70;;;;;;;;;;10438492;28;20215;-73
2022/05/12 05:22:04;;;;;;;2.55;0.57;;;;;;;;;;10436640;28;20191;-73
2022/05/12 05:27:06;;;;;;;1.67;0.60;;;;;;;;;;10427225;28;20237;-73
2022/05/12 05:32:07;;;;;;;0.73;0.40;;;;;;;;;;10422743;28;20221;-74
2022/05/12 05:37:08;;;;;;;0.30;0.30;;;;;;;;;;10415631;28;20217;-74
2022/05/12 05:42:12;;;;;;;1.38;0.52;;;;;;;;;;10418400;28;20199;-74
2022/05/12 05:47:13;;;;;;;2.80;0.47;;;;;;;;;;10430081;28;20234;-75
2022/05/12 05:57:34;;;;;;;0.68;0.50;;;;;;;;;;10424134;28;20321;-75
2022/05/12 06:02:35;;;;;;;0.43;0.43;;;;;;;;;;10437195;28;21224;-73
2022/05/12 06:07:36;;;;;;;1.58;0.40;;;;;;;;;;10413357;28;21082;-73
2022/05/12 06:12:38;;;;;;;0.70;0.63;;;;;;;;;;10417948;28;20203;-73
2022/05/12 06:17:39;;;;;;;1.40;0.30;;;;;;;;;;10406727;28;20288;-73
2022/05/12 06:22:40;;;;;;;0.68;0.40;;;;;;;;;;10414552;28;20701;-73
2022/05/12 06:27:41;;;;;;;1.75;0.22;;;;;;;;;;10419912;28;20245;-74
2022/05/12 06:32:43;;;;;;;3.28;0.28;;;;;;;;;;10419828;28;20257;-74
2022/05/12 06:37:44;;;;;;;1.75;0.50;;;;;;;;;;10420865;28;20219;-73
2022/05/12 06:42:45;;;;;;;2.20;0.40;;;;;;;;;;10427977;28;20213;-74
2022/05/12 06:47:50;;;;;;;1.15;0.52;;;;;;;;;;10430395;28;20218;-74
2022/05/12 06:52:53;;;;;;;0.60;0.40;;;;;;;;;;10425746;28;20206;-74
2022/05/12 06:57:56;;;;;;;0.60;0.60;;;;;;;;;;10408172;28;20534;-74
2022/05/12 07:02:57;;;;;;;1.35;0.88;;;;;;;;;;10430427;28;20241;-74
2022/05/12 07:07:59;;;;;;;1.25;0.82;;;;;;;;;;10439426;28;20205;-74
2022/05/12 07:13:00;;;;;;;0.73;0.73;;;;;;;;;;10423223;28;20213;-74
2022/05/12 07:18:01;;;;;;;2.38;0.73;;;;;;;;;;10442849;28;20728;-74
2022/05/12 07:28:22;;;;;;;0.40;0.40;;;;;;;;;;10411025;28;20321;-74
2022/05/12 07:33:23;;;;;;;2.90;0.43;;;;;;;;;;10418114;28;20785;-73
2022/05/12 07:38:24;;;;;;;0.68;0.68;;;;;;;;;;10429292;28;20199;-74
2022/05/12 07:43:25;;;;;;;1.55;0.82;;;;;;;;;;10423718;28;20317;-74
2022/05/12 07:48:27;;;;;;;0.85;0.80;;;;;;;;;;10418740;28;20197;-74
2022/05/12 07:53:28;;;;;;;1.15;0.80;;;;;;;;;;10422296;28;20207;-74
2022/05/12 07:58:29;;;;;;;1.35;0.55;;;;;;;;;;10417191;28;20960;-73
2022/05/12 08:03:30;;;;;;;1.08;0.70;;;;;;;;;;10430402;28;20320;-74
2022/05/12 08:08:31;;;;;;;2.53;1.10;;;;;;;;;;10431182;28;20205;-73
2022/05/12 08:13:33;;;;;;;1.48;0.70;;;;;;;;;;10422842;28;20202;-75
2022/05/12 08:18:35;;;;;;;1.33;0.90;;;;;;;;;;10419611;28;20210;-73
2022/05/12 08:23:36;;;;;;;1.80;0.63;;;;;;;;;;10407688;28;20205;-75
2022/05/12 08:28:38;;;;;;;1.98;0.95;;;;;;;;;;10430830;28;20202;-74
2022/05/12 08:33:39;;;;;;;2.15;0.60;;;;;;;;;;10423663;28;20236;-73
2022/05/12 08:38:44;;;;;;;1.58;0.60;;;;;;;;;;10413701;28;20213;-73
2022/05/12 08:43:45;;;;;;;1.25;0.60;;;;;;;;;;10406323;28;20224;-74
2022/05/12 08:48:47;;;;;;;1.42;0.60;;;;;;;;;;10419278;28;20892;-74
2022/05/12 08:53:50;;;;;;;2.05;0.50;;;;;;;;;;10429474;28;20201;-74
2022/05/12 08:58:53;;;;;;;1.30;0.60;;;;;;;;;;10435497;28;20202;-73
2022/05/12 09:03:54;;;;;;;1.27;0.70;;;;;;;;;;10449104;28;20225;-74
2022/05/12 09:08:58;;;;;;;0.77;0.50;;;;;;;;;;10417589;28;20218;-75
2022/05/12 09:14:03;;;;;;;2.17;0.80;;;;;;;;;;10411090;28;20194;-74
2022/05/12 09:19:04;;;;;;;0.60;0.57;;;;;;;;;;10426364;28;20211;-74
2022/05/12 09:24:07;;;;;;;0.70;0.40;;;;;;;;;;10416946;28;20296;-74
2022/05/12 09:29:20;;;;;;;1.30;0.40;;;;;;;;;;10428285;28;20260;-76
2022/05/12 09:34:23;;;;;;;2.10;0.52;;;;;;;;;;10388695;28;20225;-75
2022/05/12 09:39:33;;;;;;;2.05;0.50;;;;;;;;;;10417622;28;20202;-75
2022/05/12 09:44:35;;;;;;;0.98;0.55;;;;;;;;;;10437488;28;20245;-74
2022/05/12 09:49:40;;;;;;;3.20;0.60;;;;;;;;;;10427501;28;20234;-74
2022/05/12 09:54:41;;;;;;;1.20;0.60;;;;;;;;;;10436001;28;20214;-75
2022/05/12 09:59:44;;;;;;;0.43;0.40;;;;;;;;;;10419572;28;20281;-75
2022/05/12 10:10:26;;;;;;;2.65;0.50;;;;;;;;;;10230204;28;20212;-74
2022/05/12 10:15:32;;;;;;;0.98;0.50;;;;;;;;;;10370174;28;20250;-74
2022/05/12 10:20:37;;;;;;;0.40;0.30;;;;;;;;;;10433093;28;20220;-74
2022/05/12 10:25:47;;;;;;;1.65;0.40;;;;;;;;;;10420992;28;20904;-74
2022/05/12 10:30:54;;;;;;;0.60;0.40;;;;;;;;;;10417037;28;20227;-74
2022/05/12 10:35:55;;;;;;;0.65;0.40;;;;;;;;;;10421696;28;20596;-73
2022/05/12 10:41:06;;;;;;;0.30;0.30;;;;;;;;;;10422423;28;20195;-74
2022/05/12 10:46:12;;;;;;;0.73;0.40;;;;;;;;;;10407396;28;20610;-73
2022/05/12 10:51:16;;;;;;;0.93;0.45;;;;;;;;;;10415112;28;21290;-73
2022/05/12 10:56:29;;;;;;;0.80;0.43;;;;;;;;;;10440005;28;20221;-74
2022/05/12 11:01:33;;;;;;;0.75;0.68;;;;;;;;;;10407714;28;20219;-74
2022/05/12 11:06:36;;;;;;;0.73;0.45;;;;;;;;;;10427270;28;20213;-74
2022/05/12 11:11:40;;;;;;;2.70;0.60;;;;;;;;;;10429762;28;20206;-74
2022/05/12 11:22:47;;;;;;;1.25;0.40;;;;;;;;;;10432744;28;20228;-75
2022/05/12 11:33:31;;;;;;;0.75;0.43;;;;;;;;;;10422358;28;20232;-75
2022/05/12 11:38:39;;;;;;;0.77;0.52;;;;;;;;;;10421244;28;20209;-74
2022/05/12 11:49:09;;;;;;;5.07;0.50;;;;;;;;;;10429449;28;20198;-75
2022/05/12 11:54:13;;;;;;;0.93;0.45;;;;;;;;;;10436442;28;20237;-74
2022/05/12 11:59:14;;;;;;;0.60;0.55;;;;;;;;;;10422123;28;20563;-74
2022/05/12 12:04:15;;;;;;;2.25;0.50;;;;;;;;;;10428583;28;20234;-75
2022/05/12 12:09:35;;;;;;;0.70;0.60;;;;;;;;;;10429746;28;20213;-74
2022/05/12 12:14:48;;;;;;;0.40;0.40;;;;;;;;;;10414038;28;21271;-76
2022/05/12 12:19:50;;;;;;;1.55;0.45;;;;;;;;;;10408891;28;20186;-76
2022/05/12 12:25:05;;;;;;;1.20;0.50;;;;;;;;;;10430583;28;20206;-76
2022/05/12 12:30:21;;;;;;;2.05;0.60;;;;;;;;;;10420898;28;20214;-74
2022/05/12 12:35:25;;;;;;;0.85;0.40;;;;;;;;;;10429942;28;20222;-76
2022/05/12 12:40:29;;;;;;;0.38;0.30;;;;;;;;;;10419275;28;20340;-76
2022/05/12 12:45:30;;;;;;;0.40;0.40;;;;;;;;;;10439002;28;20237;-76
2022/05/12 12:50:46;;;;;;;0.77;0.30;;;;;;;;;;10426280;28;20197;-76
2022/05/12 13:01:13;;;;;;;0.30;0.30;;;;;;;;;;10422396;28;20215;-76
2022/05/12 13:06:17;;;;;;;3.60;0.43;;;;;;;;;;10405725;28;20201;-76
2022/05/12 13:11:19;;;;;;;0.30;0.30;;;;;;;;;;10421711;28;20209;-76
2022/05/12 13:16:22;;;;;;;0.52;0.28;;;;;;;;;;10425659;28;20207;-73
2022/05/12 13:21:25;;;;;;;1.65;0.32;;;;;;;;;;10423568;28;20194;-74
2022/05/12 13:26:26;;;;;;;1.65;0.40;;;;;;;;;;10424564;28;20203;-74
2022/05/12 13:31:35;;;;;;;1.33;0.30;;;;;;;;;;10410226;28;20341;-74
2022/05/12 13:36:47;;;;;;;1.95;0.30;;;;;;;;;;10404720;28;20214;-75
2022/05/12 13:41:50;;;;;;;0.65;0.40;;;;;;;;;;10404060;28;20652;-75
2022/05/12 13:46:53;;;;;;;0.95;0.30;;;;;;;;;;10418950;28;20321;-75
2022/05/12 13:51:55;;;;;;;4.95;0.40;;;;;;;;;;10420691;28;20203;-75
2022/05/12 13:57:15;;;;;;;0.30;0.30;;;;;;;;;;10412791;28;20241;-75
2022/05/12 14:02:24;;;;;;;0.95;0.43;;;;;;;;;;10434604;28;20214;-76
2022/05/12 14:07:30;;;;;;;0.63;0.30;;;;;;;;;;10430303;28;20206;-76
2022/05/12 14:12:31;;;;;;;2.83;0.43;;;;;;;;;;10451671;28;20194;-76
2022/05/12 14:22:55;;;;;;;1.05;0.30;;;;;;;;;;10423961;28;20207;-75
2022/05/12 14:27:57;;;;;;;1.17;0.30;;;;;;;;;;10414394;28;20285;-75
2022/05/12 14:32:58;;;;;;;1.67;0.38;;;;;;;;;;10429464;28;20226;-75
2022/05/12 14:38:00;;;;;;;1.13;0.30;;;;;;;;;;10423547;28;20257;-75
2022/05/12 14:43:01;;;;;;;0.40;0.40;;;;;;;;;;10421533;28;20203;-75
2022/05/12 14:48:04;;;;;;;1.42;0.30;;;;;;;;;;10393003;28;20262;-73
2022/05/12 14:53:09;;;;;;;0.60;0.20;;;;;;;;;;10421813;28;20206;-75
2022/05/12 14:58:11;;;;;;;0.52;0.40;;;;;;;;;;10421714;28;20214;-76
2022/05/12 15:03:13;;;;;;;1.58;0.30;;;;;;;;;;10435971;28;20225;-75
2022/05/12 15:08:14;;;;;;;0.30;0.30;;;;;;;;;;10446040;28;20695;-75
2022/05/12 15:13:15;;;;;;;1.17;0.45;;;;;;;;;;10440882;28;20202;-75
2022/05/12 15:18:16;;;;;;;0.28;0.28;;;;;;;;;;10462349;28;20210;-75
2022/05/12 15:23:17;;;;;;;0.65;0.30;;;;;;;;;;10439925;28;20211;-75
2022/05/12 15:28:23;;;;;;;1.27;0.40;;;;;;;;;;10434218;28;20202;-75
2022/05/12 15:33:24;;;;;;;0.75;0.43;;;;;;;;;;10417393;28;21062;-75
2022/05/12 15:38:26;;;;;;;0.40;0.40;;;;;;;;;;10446703;28;20218;-76
2022/05/12 15:43:28;;;;;;;0.30;0.30;;;;;;;;;;10448260;28;20363;-75
2022/05/12 15:48:29;;;;;;;1.67;0.40;;;;;;;;;;10440454;28;20687;-75
2022/05/12 15:53:30;;;;;;;1.85;0.40;;;;;;;;;;10423172;28;20710;-75
2022/05/12 15:58:31;;;;;;;0.50;0.50;;;;;;;;;;10387874;28;20285;-76
2022/05/12 16:03:32;;;;;;;0.45;0.45;;;;;;;;;;10424509;28;20206;-75
2022/05/12 16:08:34;;;;;;;1.25;0.47;;;;;;;;;;10448968;28;20214;-75
2022/05/12 16:13:37;;;;;;;1.05;0.40;;;;;;;;;;10445374;28;20201;-77
2022/05/12 16:18:38;;;;;;;1.25;0.50;;;;;;;;;;10432563;28;20222;-75
2022/05/12 16:23:39;;;;;;;3.05;1.33;;;;;;;;;;10431547;28;21141;-75
2022/05/12 16:28:41;;;;;;;0.77;0.77;;;;;;;;;;10420710;28;20376;-75
2022/05/12 16:33:44;;;;;;;0.95;0.60;;;;;;;;;;10430417;28;20249;-75
2022/05/12 16:38:46;;;;;;;1.00;0.43;;;;;;;;;;10444835;28;20935;-75
2022/05/12 16:43:48;;;;;;;0.63;0.40;;;;;;;;;;10447168;28;20317;-76
2022/05/12 16:48:49;;;;;;;1.23;0.50;;;;;;;;;;10441026;28;20194;-75
2022/05/12 16:53:50;;;;;;;0.60;0.60;;;;;;;;;;10423726;28;20209;-75
2022/05/12 16:58:51;;;;;;;2.40;0.60;;;;;;;;;;10422399;28;21118;-76
2022/05/12 17:03:52;;;;;;;1.10;0.50;;;;;;;;;;10404694;28;20230;-75
2022/05/12 17:08:53;;;;;;;1.40;0.68;;;;;;;;;;10427348;28;20201;-75
2022/05/12 17:13:56;;;;;;;1.48;0.70;;;;;;;;;;10433021;28;20194;-76
2022/05/12 17:18:57;;;;;;;4.15;0.60;;;;;;;;;;10423276;28;20209;-76
2022/05/12 17:23:59;;;;;;;1.13;0.70;;;;;;;;;;10422880;28;21074;-76
2022/05/12 17:29:00;;;;;;;1.70;0.73;;;;;;;;;;10436178;28;20206;-75
2022/05/12 17:34:01;;;;;;;0.63;0.63;;;;;;;;;;10448847;28;20229;-75
2022/05/12 17:39:03;;;;;;;0.75;0.75;;;;;;;;;;10448429;28;20202;-75
2022/05/12 17:44:04;;;;;;;2.13;0.90;;;;;;;;;;10460389;28;20283;-74
2022/05/12 17:49:06;;;;;;;0.80;0.80;;;;;;;;;;10450382;28;20258;-75
2022/05/12 17:54:07;;;;;;;1.17;1.05;;;;;;;;;;10451744;28;20233;-75
2022/05/12 17:59:09;;;;;;;1.13;0.90;;;;;;;;;;10449245;28;20293;-75
2022/05/12 18:04:10;;;;;;;3.25;1.42;;;;;;;;;;10450518;28;20213;-76
2022/05/12 18:09:11;;;;;;;3.88;1.35;;;;;;;;;;10417996;28;20209;-75
2022/05/12 18:14:12;;;;;;;3.08;1.48;;;;;;;;;;10451631;28;20336;-75
2022/05/12 18:19:13;;;;;;;5.85;1.48;;;;;;;;;;10441475;28;20787;-75
2022/05/12 18:24:14;;;;;;;3.53;1.60;;;;;;;;;;10446464;28;21291;-75
2022/05/12 18:29:15;;;;;;;3.15;1.42;;;;;;;;;;10421317;28;20236;-74
2022/05/12 18:34:16;;;;;;;3.15;1.95;;;;;;;;;;10438791;28;20222;-75
2022/05/12 18:39:18;;;;;;;2.08;1.48;;;;;;;;;;10442186;28;20190;-75
2022/05/12 18:44:19;;;;;;;2.35;1.30;;;;;;;;;;10435303;28;20904;-75
2022/05/12 18:49:21;;;;;;;1.38;1.27;;;;;;;;;;10451069;28;20323;-74
2022/05/12 18:54:22;;;;;;;2.00;1.50;;;;;;;;;;10431298;28;20211;-75
2022/05/12 18:59:23;;;;;;;2.28;1.20;;;;;;;;;;10433186;28;20194;-75
2022/05/12 19:04:24;;;;;;;2.80;1.30;;;;;;;;;;10408588;28;20232;-74
2022/05/12 19:09:26;;;;;;;1.75;1.65;;;;;;;;;;10434773;28;20954;-74
2022/05/12 19:14:27;;;;;;;1.83;1.70;;;;;;;;;;10436727;28;20217;-74
2022/05/12 19:19:29;;;;;;;3.08;2.08;;;;;;;;;;10430963;28;20195;-74
2022/05/12 19:24:30;;;;;;;2.20;2.20;;;;;;;;;;10445210;28;20213;-73
2022/05/12 19:29:31;;;;;;;2.60;2.50;;;;;;;;;;10425671;28;20198;-74
2022/05/12 19:34:33;;;;;;;2.45;2.00;;;;;;;;;;10436635;28;20792;-74
2022/05/12 19:39:34;;;;;;;2.92;2.40;;;;;;;;;;10433774;28;20211;-74
2022/05/12 19:44:35;;;;;;;4.05;2.70;;;;;;;;;;10439846;28;20709;-74
2022/05/12 19:49:38;;;;;;;4.22;2.40;;;;;;;;;;10422339;28;20709;-74
2022/05/12 19:54:39;;;;;;;2.38;2.38;;;;;;;;;;10431731;28;20213;-73
2022/05/12 19:59:41;;;;;;;3.90;2.30;;;;;;;;;;10446231;28;20193;-74
2022/05/12 20:04:42;;;;;;;2.67;2.40;;;;;;;;;;10434896;28;20341;-73
2022/05/12 20:09:44;;;;;;;2.97;2.40;;;;;;;;;;10417612;28;20202;-73
2022/05/12 20:14:45;;;;;;;12.32;2.70;;;;;;;;;;10457378;28;20786;-74
2022/05/12 20:19:46;;;;;;;4.32;4.03;;;;;;;;;;10424839;28;20198;-73
2022/05/12 20:24:47;;;;;;;4.80;4.50;;;;;;;;;;10437283;28;20647;-74
2022/05/12 20:29:48;;;;;;;4.90;3.95;;;;;;;;;;10430032;28;20259;-73
2022/05/12 20:34:49;;;;;;;4.10;3.88;;;;;;;;;;10438523;28;20691;-73
2022/05/12 20:39:50;;;;;;;3.38;3.17;;;;;;;;;;10442069;28;20230;-74
2022/05/12 20:44:52;;;;;;;4.45;4.10;;;;;;;;;;10444923;28;20234;-73
2022/05/12 20:49:53;;;;;;;5.22;4.90;;;;;;;;;;10442544;28;20213;-72
2022/05/12 20:54:54;;;;;;;4.65;4.45;;;;;;;;;;10431022;28;20244;-73
2022/05/12 20:59:55;;;;;;;7.03;5.10;;;;;;;;;;10434149;28;20232;-73
2022/05/12 21:04:56;;;;;;;4.30;4.10;;;;;;;;;;10434509;28;20210;-73
2022/05/12 21:09:57;;;;;;;3.75;3.47;;;;;;;;;;10423938;28;20206;-73
2022/05/12 21:14:58;;;;;;;4.88;4.68;;;;;;;;;;10433003;28;20222;-73
2022/05/12 21:19:59;;;;;;;5.20;4.78;;;;;;;;;;10434343;28;20702;-73
2022/05/12 21:25:00;;;;;;;5.47;5.20;;;;;;;;;;10440323;28;20332;-73
2022/05/12 21:30:02;;;;;;;5.97;5.68;;;;;;;;;;10433283;28;20206;-73
2022/05/12 21:35:03;;;;;;;6.22;5.57;;;;;;;;;;10435115;28;20264;-73
2022/05/12 21:40:05;;;;;;;7.22;6.72;;;;;;;;;;10433496;28;20694;-73
2022/05/12 21:50:27;;;;;;;9.05;8.23;;;;;;;;;;10436416;28;20193;-73
2022/05/12 21:55:28;;;;;;;10.70;9.75;;;;;;;;;;10433816;28;20228;-74
2022/05/12 22:05:57;;;;;;;11.48;10.68;;;;;;;;;;10424798;28;20593;-73
2022/05/12 22:10:58;;;;;;;11.82;10.88;;;;;;;;;;10445672;28;20229;-73
2022/05/12 22:15:59;;;;;;;12.52;11.13;;;;;;;;;;10445281;28;20263;-74
2022/05/12 22:21:01;;;;;;;12.05;10.80;;;;;;;;;;10447773;28;20191;-73
2022/05/12 22:26:03;;;;;;;12.02;11.15;;;;;;;;;;10447000;28;20217;-73
2022/05/12 22:31:04;;;;;;;12.25;11.25;;;;;;;;;;10443475;28;20218;-74
2022/05/12 22:36:05;;;;;;;12.50;11.25;;;;;;;;;;10451007;28;20215;-73
2022/05/12 22:41:06;;;;;;;14.82;13.43;;;;;;;;;;10445733;28;20260;-73
2022/05/12 22:46:07;;;;;;;15.15;13.75;;;;;;;;;;10446850;28;20230;-73
2022/05/12 22:51:12;;;;;;;13.90;12.82;;;;;;;;;;10437050;28;20270;-73
2022/05/12 22:56:14;;;;;;;13.40;12.15;;;;;;;;;;10415296;28;20214;-74
2022/05/12 23:01:16;;;;;;;12.88;11.88;;;;;;;;;;10427710;28;20218;-73
2022/05/12 23:06:17;;;;;;;12.95;11.82;;;;;;;;;;10445396;28;20205;-74
2022/05/12 23:11:19;;;;;;;13.73;12.40;;;;;;;;;;10441331;28;20785;-73
2022/05/12 23:16:20;;;;;;;13.88;12.80;;;;;;;;;;10447499;28;20214;-73
2022/05/12 23:26:41;;;;;;;14.73;13.70;;;;;;;;;;10442790;28;20198;-73
2022/05/12 23:31:42;;;;;;;15.05;13.68;;;;;;;;;;10452224;28;20245;-73
2022/05/12 23:36:43;;;;;;;12.38;11.48;;;;;;;;;;10442566;28;20217;-74
2022/05/12 23:41:44;;;;;;;14.70;13.27;;;;;;;;;;10447613;28;20295;-73
2022/05/12 23:46:45;;;;;;;20.33;13.35;;;;;;;;;;10439839;28;20297;-73
2022/05/12 23:51:47;;;;;;;14.07;12.73;;;;;;;;;;10432703;28;20202;-73
2022/05/12 23:56:48;;;;;;;13.95;12.85;;;;;;;;;;10433703;28;20741;-74
